Time;durP1;ratioP1;P1;durP2;ratioP2;P2;SDS_P1;SDS_P2;PMS_P1;PMS_P2;Temp;Humidity;BMP_temperature;BMP_pressure;BME280_temperature;BME280_humidity;BME280_pressure;Samples;Min_cycle;Max_cycle;Signal;HPM_P1;HPM_P2
2021/08/31 00:00:46;;;;;;;9.73;8.38;;;;;;;16.09;100.00;100961.80;1688910;85;21021;-85
2021/08/31 00:03:13;;;;;;;9.88;8.23;;;;;;;16.08;100.00;100964.87;1688898;83;21735;-85
2021/08/31 00:05:42;;;;;;;14.23;8.68;;;;;;;16.07;100.00;100975.06;1688745;83;21026;-85
2021/08/31 00:08:10;;;;;;;13.45;8.43;;;;;;;16.03;100.00;100956.02;1688738;83;21033;-85
2021/08/31 00:10:37;;;;;;;10.85;7.97;;;;;;;16.03;100.00;100944.48;1688829;83;21387;-84
2021/08/31 00:13:07;;;;;;;9.55;7.78;;;;;;;16.00;100.00;100957.31;1688890;83;21036;-85
2021/08/31 00:15:33;;;;;;;12.80;8.73;;;;;;;15.99;100.00;100961.28;1688361;85;22549;-84
2021/08/31 00:18:02;;;;;;;14.20;8.98;;;;;;;15.98;100.00;100970.14;1688789;85;21041;-84
2021/08/31 00:20:29;;;;;;;10.70;8.63;;;;;;;15.97;100.00;100969.67;1688802;83;21002;-84
2021/08/31 00:22:57;;;;;;;11.20;7.75;;;;;;;15.93;100.00;100967.02;1688998;83;21657;-84
2021/08/31 00:25:26;;;;;;;15.83;8.90;;;;;;;15.91;100.00;100962.11;1688900;84;21080;-84
2021/08/31 00:27:53;;;;;;;11.55;8.73;;;;;;;15.91;100.00;100959.45;1688608;84;21497;-84
2021/08/31 00:30:22;;;;;;;13.05;8.58;;;;;;;15.92;100.00;100967.89;1688794;85;20966;-84
2021/08/31 00:32:49;;;;;;;13.40;8.70;;;;;;;15.95;100.00;100964.35;1688797;83;21507;-83
2021/08/31 00:35:16;;;;;;;20.85;9.03;;;;;;;16.01;100.00;100962.17;1688759;83;21585;-84
2021/08/31 00:37:45;;;;;;;14.45;9.63;;;;;;;16.06;100.00;100961.77;1688925;85;21472;-83
2021/08/31 00:40:13;;;;;;;13.78;9.13;;;;;;;16.06;100.00;100956.01;1688781;83;21800;-84
2021/08/31 00:42:40;;;;;;;12.55;8.78;;;;;;;16.05;100.00;100963.55;1688778;84;21511;-83
2021/08/31 00:45:08;;;;;;;14.25;9.13;;;;;;;16.06;100.00;100953.35;1688865;83;21013;-83
2021/08/31 00:47:36;;;;;;;17.73;12.10;;;;;;;16.05;100.00;100950.72;1664428;83;21022;-83
2021/08/31 00:50:07;;;;;;;10.30;8.13;;;;;;;16.06;100.00;100950.70;1660047;86;21056;-83
2021/08/31 00:52:33;;;;;;;15.18;9.65;;;;;;;16.08;100.00;100967.52;1631753;87;22547;-83
2021/08/31 00:55:00;;;;;;;14.80;9.75;;;;;;;16.07;100.00;100960.91;1669170;84;21026;-84
2021/08/31 00:57:30;;;;;;;14.35;10.18;;;;;;;16.10;100.00;100963.14;1669488;85;21010;-83
2021/08/31 00:59:57;;;;;;;10.93;8.55;;;;;;;16.11;100.00;100957.38;1661470;84;20959;-84
2021/08/31 01:02:24;;;;;;;15.70;8.68;;;;;;;16.14;100.00;100968.00;1659977;84;21562;-84
2021/08/31 01:04:51;;;;;;;18.45;10.60;;;;;;;16.15;100.00;100957.84;1660037;84;21759;-85
2021/08/31 01:07:18;;;;;;;17.73;10.32;;;;;;;16.12;100.00;100964.03;1659982;85;21041;-85
2021/08/31 01:09:45;;;;;;;17.48;9.38;;;;;;;16.10;100.00;100967.12;1660027;86;21455;-84
2021/08/31 01:12:12;;;;;;;13.10;10.03;;;;;;;16.10;100.00;100964.47;1631720;87;21510;-83
2021/08/31 01:14:39;;;;;;;12.85;8.68;;;;;;;16.10;100.00;100964.47;1631725;87;21534;-82
2021/08/31 01:17:06;;;;;;;14.75;9.63;;;;;;;16.07;100.00;100965.77;1669412;85;21730;-85
2021/08/31 01:19:33;;;;;;;13.43;8.83;;;;;;;16.06;100.00;100969.73;1669321;85;20995;-84
2021/08/31 01:22:05;;;;;;;11.12;8.80;;;;;;;16.06;100.00;100971.06;1638787;86;21531;-83
2021/08/31 01:24:32;;;;;;;14.05;9.38;;;;;;;16.08;100.00;100973.28;1659988;86;21390;-84
2021/08/31 01:27:04;;;;;;;10.65;8.93;;;;;;;16.04;100.00;100966.19;1609556;87;21088;-85
2021/08/31 01:29:31;;;;;;;10.85;7.90;;;;;;;16.00;100.00;100963.07;1669373;85;21708;-84
2021/08/31 01:32:03;;;;;;;11.70;8.35;;;;;;;15.94;100.00;100963.92;1669282;86;20999;-84
2021/08/31 01:34:28;;;;;;;10.58;8.30;;;;;;;15.90;100.00;100962.13;1659734;84;21008;-82
2021/08/31 01:36:55;;;;;;;16.12;8.68;;;;;;;15.84;100.00;100958.08;1633477;86;21498;-83
2021/08/31 01:39:22;;;;;;;10.23;8.25;;;;;;;15.80;100.00;100954.97;1669457;85;21042;-83
2021/08/31 01:41:49;;;;;;;12.78;9.00;;;;;;;15.77;100.00;100959.83;1672540;84;21922;-83
2021/08/31 01:44:16;;;;;;;11.80;9.35;;;;;;;15.76;100.00;100958.48;1669168;85;21089;-83
2021/08/31 01:46:42;;;;;;;18.37;9.70;;;;;;;15.74;100.00;100966.42;1673891;84;20994;-83
2021/08/31 01:49:12;;;;;;;13.83;9.70;;;;;;;15.74;100.00;100968.63;1671689;84;21029;-84
2021/08/31 01:51:43;;;;;;;12.07;8.98;;;;;;;15.78;100.00;100976.18;1669298;84;21010;-84
2021/08/31 01:54:10;;;;;;;13.90;10.15;;;;;;;15.80;100.00;100972.22;1659920;86;20996;-84
2021/08/31 01:56:39;;;;;;;21.52;11.45;;;;;;;15.80;100.00;100965.58;1659642;86;21035;-84
2021/08/31 01:59:06;;;;;;;16.55;11.00;;;;;;;15.83;100.00;100962.96;1659994;84;21566;-82
2021/08/31 02:01:33;;;;;;;21.00;11.43;;;;;;;15.84;100.00;100972.68;1659971;86;21560;-82
2021/08/31 02:04:02;;;;;;;15.50;10.95;;;;;;;15.83;100.00;100955.00;1636831;86;21096;-84
2021/08/31 02:06:28;;;;;;;17.17;10.13;;;;;;;15.82;100.00;100954.12;1637045;86;21824;-84
2021/08/31 02:08:57;;;;;;;13.13;9.20;;;;;;;15.81;100.00;100963.39;1636488;86;20988;-83
2021/08/31 02:11:24;;;;;;;12.13;9.35;;;;;;;15.80;100.00;100950.98;1631738;86;21515;-84
2021/08/31 02:13:50;;;;;;;12.18;8.10;;;;;;;15.77;100.00;100961.60;1669433;86;21026;-84
2021/08/31 02:16:19;;;;;;;11.22;8.33;;;;;;;15.72;100.00;100957.09;1682579;83;21053;-83
2021/08/31 02:18:49;;;;;;;12.10;8.98;;;;;;;15.69;100.00;100948.21;1669408;86;21754;-83
2021/08/31 02:21:16;;;;;;;12.78;8.98;;;;;;;15.68;100.00;100951.31;1660327;86;21010;-83
2021/08/31 02:23:43;;;;;;;15.45;8.95;;;;;;;15.66;100.00;100948.21;1669379;84;21042;-83
2021/08/31 02:26:10;;;;;;;14.25;9.10;;;;;;;15.65;100.00;100945.97;1659924;86;21009;-83
2021/08/31 02:28:36;;;;;;;12.85;8.93;;;;;;;15.64;100.00;100942.89;1631436;87;21502;-82
2021/08/31 02:31:03;;;;;;;13.13;9.18;;;;;;;15.64;100.00;100938.03;1631700;86;21761;-82
2021/08/31 02:33:30;;;;;;;13.55;9.10;;;;;;;15.62;100.00;100939.34;1669292;84;21009;-82
2021/08/31 02:36:00;;;;;;;11.50;10.30;;;;;;;15.64;100.00;100940.23;1669312;84;20996;-82
2021/08/31 02:38:27;;;;;;;16.42;11.22;;;;;;;15.66;100.00;100928.31;1669293;83;21014;-82
2021/08/31 02:40:53;;;;;;;21.33;12.68;;;;;;;15.67;100.00;100931.39;1669383;85;21010;-82
2021/08/31 02:43:20;;;;;;;19.27;13.80;;;;;;;15.70;100.00;100938.06;1669570;85;22452;-83
2021/08/31 02:45:47;;;;;;;17.85;13.88;;;;;;;15.69;100.00;100927.89;1669295;85;20994;-84
2021/08/31 02:48:17;;;;;;;19.07;14.03;;;;;;;15.71;100.00;100927.46;1669376;86;20991;-83
2021/08/31 02:50:42;;;;;;;20.82;14.60;;;;;;;15.73;100.00;100939.01;1668989;84;21074;-84
2021/08/31 02:53:09;;;;;;;17.73;14.63;;;;;;;15.74;100.00;100935.91;1669378;85;21038;-84
2021/08/31 02:55:40;;;;;;;22.32;14.85;;;;;;;15.76;100.00;100933.27;1669331;85;21708;-83
2021/08/31 02:58:07;;;;;;;20.90;14.43;;;;;;;15.76;100.00;100934.59;1637895;86;21460;-84
2021/08/31 03:00:36;;;;;;;22.17;14.63;;;;;;;15.76;100.00;100931.49;1669333;85;21014;-84
2021/08/31 03:03:04;;;;;;;16.15;13.53;;;;;;;15.77;100.00;100952.31;1669137;86;21030;-84
2021/08/31 03:05:31;;;;;;;17.65;13.22;;;;;;;15.76;100.00;100938.58;1669370;85;21102;-84
2021/08/31 03:07:59;;;;;;;16.73;11.73;;;;;;;15.71;100.00;100934.09;1669312;85;21030;-81
2021/08/31 03:10:26;;;;;;;18.17;13.03;;;;;;;15.71;100.00;100946.45;1669285;85;20963;-83
2021/08/31 03:12:56;;;;;;;21.00;12.30;;;;;;;15.69;100.00;100937.19;1669378;85;21050;-82
2021/08/31 03:15:25;;;;;;;18.48;12.03;;;;;;;15.69;100.00;100944.23;1669012;85;20982;-82
2021/08/31 03:17:52;;;;;;;19.95;12.78;;;;;;;15.68;100.00;100934.52;1668985;84;20990;-81
2021/08/31 03:20:19;;;;;;;18.95;13.90;;;;;;;15.70;100.00;100932.76;1673700;84;21800;-81
2021/08/31 03:22:46;;;;;;;22.98;13.62;;;;;;;15.69;100.00;100938.51;1669249;84;20978;-81
2021/08/31 03:25:15;;;;;;;18.75;14.60;;;;;;;15.69;100.00;100937.19;1669294;85;21006;-80
2021/08/31 03:27:42;;;;;;;18.37;13.25;;;;;;;15.69;100.00;100936.27;1669186;85;21417;-81
2021/08/31 03:30:14;;;;;;;13.40;11.83;;;;;;;15.68;100.00;100935.39;1669380;85;21015;-82
2021/08/31 03:32:42;;;;;;;15.35;11.28;;;;;;;15.66;100.00;100929.19;1672673;83;21690;-82
2021/08/31 03:35:11;;;;;;;16.25;11.43;;;;;;;15.66;100.00;100936.27;1669239;85;21047;-82
2021/08/31 03:37:38;;;;;;;19.60;12.40;;;;;;;15.67;100.00;100923.44;1669400;85;21146;-82
2021/08/31 03:40:06;;;;;;;15.83;11.48;;;;;;;15.65;100.00;100924.75;1669454;85;21022;-82
2021/08/31 03:42:33;;;;;;;18.23;11.57;;;;;;;15.66;100.00;100924.33;1669433;85;21042;-81
2021/08/31 03:44:59;;;;;;;15.20;10.23;;;;;;;15.65;100.00;100926.07;1669499;85;22662;-82
2021/08/31 03:47:28;;;;;;;15.40;11.30;;;;;;;15.62;100.00;100921.21;1669313;85;21033;-85
2021/08/31 03:49:55;;;;;;;18.00;11.70;;;;;;;15.61;100.00;100956.12;1669557;84;21473;-84
2021/08/31 03:52:24;;;;;;;19.07;11.12;;;;;;;15.62;100.00;100922.09;1669485;85;21127;-83
2021/08/31 03:54:51;;;;;;;15.55;11.08;;;;;;;15.64;100.00;100953.95;1669560;85;21015;-83
2021/08/31 03:57:18;;;;;;;15.58;11.08;;;;;;;15.65;100.00;100919.88;1669465;85;21741;-84
2021/08/31 03:59:46;;;;;;;15.60;9.98;;;;;;;15.67;100.00;100924.34;1637879;86;21105;-84
2021/08/31 04:02:14;;;;;;;14.95;11.85;;;;;;;15.68;100.00;100930.08;1658803;85;21027;-84
2021/08/31 04:04:41;;;;;;;20.35;13.03;;;;;;;15.69;100.00;100926.56;1667984;85;21504;-83
2021/08/31 04:07:08;;;;;;;18.48;12.40;;;;;;;15.71;100.00;100923.48;1658685;86;20996;-81
2021/08/31 04:09:35;;;;;;;18.80;13.78;;;;;;;15.72;100.00;100926.56;1635936;86;21922;-82
2021/08/31 04:12:05;;;;;;;18.73;12.73;;;;;;;15.74;100.00;100934.58;1658607;86;21529;-85
2021/08/31 04:14:33;;;;;;;24.70;15.90;;;;;;;15.75;100.00;100935.05;1667860;85;21098;-85
2021/08/31 04:17:03;;;;;;;22.42;15.53;;;;;;;15.77;100.00;100929.75;1666900;84;21026;-85
2021/08/31 04:19:31;;;;;;;18.65;11.35;;;;;;;15.76;100.00;100930.17;1669472;85;21075;-85
2021/08/31 04:22:02;;;;;;;20.40;14.28;;;;;;;15.78;100.00;100932.84;1697905;84;21895;-81
2021/08/31 04:24:30;;;;;;;18.98;13.93;;;;;;;15.79;100.00;100945.25;1687142;83;21047;-80
2021/08/31 04:27:01;;;;;;;15.68;11.43;;;;;;;15.82;100.00;100933.30;1684568;84;21560;-81
2021/08/31 04:29:25;;;;;;;19.02;15.83;;;;;;;15.84;100.00;100932.86;1688230;84;21483;-80
2021/08/31 04:31:52;;;;;;;20.48;13.70;;;;;;;15.86;100.00;100929.78;1688891;85;21005;-81
2021/08/31 04:34:19;;;;;;;16.75;11.95;;;;;;;15.88;100.00;100938.22;1688875;85;21733;-80
2021/08/31 04:36:52;;;;;;;17.70;12.47;;;;;;;15.90;100.00;100935.58;1688904;83;20950;-86
2021/08/31 04:39:20;;;;;;;15.35;12.75;;;;;;;15.88;100.00;100939.55;1644465;84;21104;-87
2021/08/31 04:41:50;;;;;;;19.67;13.03;;;;;;;15.88;100.00;100935.56;1688271;83;21002;-82
2021/08/31 04:44:23;;;;;;;17.80;13.58;;;;;;;15.89;100.00;100934.67;1664761;84;21039;-82
2021/08/31 04:46:49;;;;;;;16.25;13.00;;;;;;;15.91;100.00;100939.55;1687138;83;21826;-82
2021/08/31 04:49:16;;;;;;;15.23;11.83;;;;;;;15.93;100.00;100944.88;1687465;84;21410;-82
2021/08/31 04:51:43;;;;;;;20.20;14.65;;;;;;;15.95;100.00;100936.47;1658666;86;21004;-83
2021/08/31 04:54:10;;;;;;;15.00;12.45;;;;;;;15.99;100.00;100933.41;1668034;86;21007;-83
2021/08/31 04:56:36;;;;;;;19.05;13.70;;;;;;;16.01;100.00;100939.19;1658710;86;21507;-83
2021/08/31 04:59:03;;;;;;;16.85;12.53;;;;;;;16.03;100.00;100942.73;1658705;86;21716;-82
2021/08/31 05:01:30;;;;;;;19.60;12.55;;;;;;;16.06;100.00;100937.88;1667586;85;21022;-82
2021/08/31 05:03:57;;;;;;;18.07;11.75;;;;;;;16.09;100.00;100944.09;1667768;86;20968;-83
2021/08/31 05:06:24;;;;;;;17.10;11.60;;;;;;;16.14;100.00;100950.73;1658324;86;21298;-83
2021/08/31 05:08:51;;;;;;;13.80;10.43;;;;;;;16.17;100.00;100956.53;1667763;85;21011;-83
2021/08/31 05:11:18;;;;;;;14.43;10.88;;;;;;;16.21;100.00;100949.89;1658322;86;21708;-82
2021/08/31 05:13:47;;;;;;;11.73;10.50;;;;;;;16.26;100.00;100959.23;1667946;86;21090;-86
2021/08/31 05:16:15;;;;;;;13.80;9.68;;;;;;;16.28;100.00;100953.03;1658483;86;21027;-85
2021/08/31 05:18:44;;;;;;;13.40;10.13;;;;;;;16.30;100.00;100956.58;1668025;85;21094;-85
2021/08/31 05:21:11;;;;;;;12.88;9.15;;;;;;;16.33;100.00;100957.94;1659205;84;21031;-84
2021/08/31 05:23:39;;;;;;;11.05;8.60;;;;;;;16.37;100.00;100958.84;1681383;85;21012;-85
2021/08/31 05:26:06;;;;;;;16.20;10.10;;;;;;;16.41;100.00;100960.62;1684882;85;21492;-84
2021/08/31 05:28:33;;;;;;;13.95;9.03;;;;;;;16.44;100.00;100955.75;1658611;86;21051;-84
2021/08/31 05:31:00;;;;;;;13.05;9.53;;;;;;;16.48;100.00;100955.79;1668060;85;21433;-84
2021/08/31 05:33:33;;;;;;;13.03;8.90;;;;;;;16.52;100.00;100958.02;1684894;83;21005;-86
2021/08/31 05:35:58;;;;;;;12.45;8.83;;;;;;;16.57;100.00;100966.00;1687128;82;21214;-85
2021/08/31 05:38:25;;;;;;;14.55;9.95;;;;;;;16.60;100.00;100952.28;1680445;83;21018;-85
2021/08/31 05:40:52;;;;;;;12.60;9.73;;;;;;;16.69;100.00;100966.05;1715461;82;21503;-83
2021/08/31 05:43:18;;;;;;;12.63;8.95;;;;;;;16.77;100.00;100974.05;1707016;82;21423;-84
2021/08/31 05:45:45;;;;;;;18.98;9.25;;;;;;;16.84;100.00;100951.50;1715478;82;21508;-85
2021/08/31 05:48:12;;;;;;;13.90;9.43;;;;;;;16.92;100.00;100955.95;1715673;83;21768;-84
2021/08/31 05:50:39;;;;;;;13.50;8.83;;;;;;;16.99;100.00;100954.64;1712685;82;21480;-84
2021/08/31 05:53:05;;;;;;;13.50;9.70;;;;;;;17.05;100.00;100953.31;1693655;83;21001;-84
2021/08/31 05:55:36;;;;;;;12.58;9.30;;;;;;;17.08;100.00;100967.08;1686225;83;21427;-84
2021/08/31 05:58:03;;;;;;;16.75;10.03;;;;;;;17.07;100.00;100952.88;1686423;83;21021;-84
2021/08/31 06:00:29;;;;;;;14.30;11.53;;;;;;;17.13;100.00;100970.61;1686251;83;22591;-84
2021/08/31 06:02:56;;;;;;;15.53;12.33;;;;;;;17.21;100.00;100982.59;1686324;85;21064;-84
2021/08/31 06:05:23;;;;;;;15.05;11.45;;;;;;;17.25;100.00;100975.08;1686361;84;21057;-85
2021/08/31 06:07:50;;;;;;;12.43;9.83;;;;;;;17.28;100.00;100970.62;1698387;83;21011;-85
2021/08/31 06:10:18;;;;;;;12.47;9.38;;;;;;;17.31;99.88;100967.09;1715541;83;20992;-84
2021/08/31 06:12:44;;;;;;;16.20;10.18;;;;;;;17.31;99.59;100962.23;1715553;82;21748;-84
2021/08/31 06:15:13;;;;;;;12.65;8.83;;;;;;;17.29;98.70;100977.73;1715397;83;21590;-85
2021/08/31 06:17:40;;;;;;;16.17;9.48;;;;;;;17.24;98.43;100965.31;1715478;83;20956;-84
2021/08/31 06:20:08;;;;;;;13.72;10.28;;;;;;;17.24;98.15;100967.52;1715506;83;20984;-84
2021/08/31 06:22:35;;;;;;;12.60;9.20;;;;;;;17.32;98.01;100975.51;1713528;83;21027;-85
2021/08/31 06:25:01;;;;;;;15.93;9.73;;;;;;;17.39;97.98;100961.33;1689548;83;21735;-84
2021/08/31 06:27:28;;;;;;;15.80;8.83;;;;;;;17.45;97.48;100973.30;1694999;83;20958;-85
2021/08/31 06:29:58;;;;;;;14.87;9.68;;;;;;;17.46;97.06;100960.89;1695960;84;20987;-85
2021/08/31 06:32:24;;;;;;;14.28;10.00;;;;;;;17.44;96.25;100967.55;1692606;84;21026;-85
2021/08/31 06:34:51;;;;;;;12.20;8.98;;;;;;;17.38;95.92;100967.55;1687579;83;21011;-85
2021/08/31 06:37:20;;;;;;;14.55;10.60;;;;;;;17.36;95.72;100964.00;1693828;83;21453;-85
2021/08/31 06:39:50;;;;;;;16.50;9.45;;;;;;;17.38;95.47;100963.98;1689997;83;21018;-84
2021/08/31 06:42:15;;;;;;;12.18;9.03;;;;;;;17.45;95.20;100969.75;1695767;83;20999;-85
2021/08/31 06:44:43;;;;;;;15.10;9.45;;;;;;;17.59;94.92;100970.65;1649032;85;21679;-85
2021/08/31 06:47:10;;;;;;;12.37;9.63;;;;;;;17.72;94.69;100995.91;1633431;87;21041;-84
2021/08/31 06:49:40;;;;;;;14.60;9.33;;;;;;;17.79;94.04;100981.30;1660638;84;21810;-85
2021/08/31 06:52:08;;;;;;;12.43;8.73;;;;;;;17.76;93.16;100987.95;1695002;83;21014;-84
2021/08/31 06:54:35;;;;;;;14.38;9.83;;;;;;;17.65;92.62;100977.74;1688541;83;21457;-84
2021/08/31 06:57:03;;;;;;;12.25;9.48;;;;;;;17.64;93.17;100974.20;1688631;83;21243;-84
2021/08/31 06:59:30;;;;;;;12.50;9.43;;;;;;;17.65;92.81;100974.63;1689233;83;21454;-84
2021/08/31 07:01:57;;;;;;;19.73;9.80;;;;;;;17.67;92.01;100971.52;1714001;83;21734;-85
2021/08/31 07:04:25;;;;;;;11.65;8.95;;;;;;;17.71;92.20;100980.84;1665801;85;21039;-85
2021/08/31 07:06:52;;;;;;;14.38;9.28;;;;;;;17.81;92.46;100978.60;1673506;84;21481;-84
2021/08/31 07:09:20;;;;;;;11.90;8.95;;;;;;;17.85;92.07;100985.31;1670790;85;21034;-85
2021/08/31 07:11:46;;;;;;;10.65;9.40;;;;;;;17.85;91.64;100983.98;1676214;84;21003;-84
2021/08/31 07:14:13;;;;;;;16.65;10.20;;;;;;;17.84;91.38;100986.19;1688911;83;21766;-84
2021/08/31 07:16:40;;;;;;;12.07;10.05;;;;;;;17.78;91.11;100984.83;1692310;82;21014;-84
2021/08/31 07:19:06;;;;;;;13.68;9.70;;;;;;;17.71;91.17;100991.05;1704729;82;20975;-84
2021/08/31 07:21:33;;;;;;;13.62;10.13;;;;;;;17.67;91.23;101006.13;1723916;82;21004;-85
2021/08/31 07:24:01;;;;;;;15.48;10.85;;;;;;;17.29;91.48;101008.78;1706060;82;47715;-84
2021/08/31 07:26:28;;;;;;;13.10;10.35;;;;;;;16.77;91.78;100993.98;1730428;81;22626;-84
2021/08/31 07:28:54;;;;;;;16.97;10.98;;;;;;;16.64;92.87;101014.31;1729985;82;21470;-84
2021/08/31 07:31:22;;;;;;;12.28;10.95;;;;;;;16.51;92.85;101001.41;1730262;82;21479;-84
2021/08/31 07:33:50;;;;;;;16.45;11.15;;;;;;;16.45;93.40;101010.68;1697103;82;21015;-85
2021/08/31 07:36:23;;;;;;;14.10;11.20;;;;;;;16.42;93.75;100998.28;1694513;82;21473;-85
2021/08/31 07:38:50;;;;;;;17.40;11.38;;;;;;;16.41;93.91;101000.48;1659060;85;22259;-85
2021/08/31 07:41:17;;;;;;;16.57;11.43;;;;;;;16.43;94.13;101000.48;1667831;86;20987;-84
2021/08/31 07:43:45;;;;;;;13.35;10.63;;;;;;;16.46;94.47;100998.73;1683501;84;21066;-84
2021/08/31 07:46:11;;;;;;;17.02;10.88;;;;;;;16.52;94.75;100996.10;1705767;83;21034;-82
2021/08/31 07:48:38;;;;;;;18.05;11.70;;;;;;;16.70;95.32;101001.04;1710123;83;21500;-85
2021/08/31 07:51:05;;;;;;;14.35;11.28;;;;;;;16.74;94.93;100989.53;1689876;83;21865;-85
2021/08/31 07:53:32;;;;;;;17.92;11.22;;;;;;;16.74;94.33;101001.48;1660128;86;20993;-84
2021/08/31 07:56:00;;;;;;;14.15;11.12;;;;;;;16.83;94.73;100984.27;1669383;86;21449;-84
2021/08/31 07:58:27;;;;;;;14.50;10.65;;;;;;;16.94;94.92;101002.93;1659717;85;21032;-85
2021/08/31 08:00:53;;;;;;;14.98;11.10;;;;;;;17.02;94.46;101015.79;1642117;85;21032;-85
2021/08/31 08:03:20;;;;;;;14.60;10.48;;;;;;;17.05;93.80;101007.83;1641995;86;21710;-84
2021/08/31 08:05:47;;;;;;;10.48;9.00;;;;;;;17.09;93.45;100984.34;1671911;84;20988;-84
2021/08/31 08:08:13;;;;;;;13.13;9.40;;;;;;;17.15;93.45;100995.44;1688458;83;21459;-85
2021/08/31 08:10:40;;;;;;;13.20;10.45;;;;;;;17.28;93.06;100994.56;1694255;82;21383;-85
2021/08/31 08:13:06;;;;;;;13.80;9.38;;;;;;;17.39;92.84;100998.58;1673684;85;21045;-85
2021/08/31 08:15:33;;;;;;;14.93;9.73;;;;;;;17.54;92.21;101021.66;1658413;84;22428;-85
2021/08/31 08:18:00;;;;;;;14.18;8.85;;;;;;;17.67;91.56;101003.47;1658491;84;21525;-85
2021/08/31 08:20:27;;;;;;;10.85;8.25;;;;;;;17.83;91.16;101006.11;1703013;82;21544;-85
2021/08/31 08:22:56;;;;;;;10.93;8.75;;;;;;;17.93;90.30;101015.92;1710008;82;21019;-86
2021/08/31 08:25:22;;;;;;;13.68;9.75;;;;;;;17.93;89.33;101011.92;1697557;82;21018;-86
2021/08/31 08:27:48;;;;;;;12.93;9.30;;;;;;;17.88;89.10;101002.59;1692063;83;22602;-83
2021/08/31 08:30:18;;;;;;;13.75;9.60;;;;;;;17.86;88.89;101011.03;1687656;82;21015;-85
2021/08/31 08:32:47;;;;;;;13.18;8.75;;;;;;;17.83;88.29;101011.44;1697161;83;21008;-85
2021/08/31 08:35:13;;;;;;;13.72;8.58;;;;;;;17.82;88.10;101009.69;1671862;82;21083;-85
2021/08/31 08:37:42;;;;;;;12.37;8.60;;;;;;;17.80;87.87;101024.33;1687381;82;21066;-84
2021/08/31 08:40:09;;;;;;;10.90;8.70;;;;;;;17.83;87.78;101012.77;1727333;82;21728;-85
2021/08/31 08:42:38;;;;;;;14.07;9.23;;;;;;;17.90;87.73;101009.70;1705206;83;21022;-84
2021/08/31 08:45:07;;;;;;;12.98;9.58;;;;;;;17.96;87.72;101011.94;1687570;83;21020;-88
2021/08/31 08:47:35;;;;;;;12.03;9.13;;;;;;;18.02;87.21;101010.59;1682958;83;21519;-91
2021/08/31 08:50:05;;;;;;;12.82;9.13;;;;;;;18.06;86.71;101010.14;1686979;83;21032;-84
2021/08/31 08:52:31;;;;;;;16.00;9.33;;;;;;;18.03;86.97;101007.47;1689391;83;21723;-85
2021/08/31 08:54:57;;;;;;;15.60;9.58;;;;;;;18.01;86.71;101011.91;1695433;83;21057;-85
2021/08/31 08:57:30;;;;;;;18.00;9.80;;;;;;;18.00;87.06;101015.03;1703797;83;21494;-84
2021/08/31 08:59:56;;;;;;;12.33;8.55;;;;;;;17.95;86.41;101008.81;1691270;82;21013;-85
2021/08/31 09:02:37;;;;;;;14.33;9.23;;;;;;;17.95;86.65;101015.47;1696874;83;21094;-84
2021/08/31 09:05:05;;;;;;;15.75;10.28;;;;;;;17.95;86.24;101025.25;1705496;82;21750;-85
2021/08/31 09:07:36;;;;;;;14.83;10.30;;;;;;;17.92;86.29;100999.48;1698183;83;21092;-85
2021/08/31 09:10:17;;;;;;;19.10;10.48;;;;;;;17.99;86.38;101012.36;1673281;83;20991;-85
2021/08/31 09:12:47;;;;;;;12.28;8.70;;;;;;;18.05;86.00;101008.34;1712003;83;21022;-85
2021/08/31 09:15:27;;;;;;;15.58;9.10;;;;;;;18.21;86.41;101036.75;1690689;83;20988;-84
2021/08/31 09:18:10;;;;;;;11.83;9.13;;;;;;;18.29;85.28;101013.20;1677288;83;21802;-85
2021/08/31 09:20:45;;;;;;;18.87;9.83;;;;;;;18.30;85.19;101021.61;1703088;83;21007;-85
2021/08/31 09:23:20;;;;;;;14.47;9.20;;;;;;;18.36;84.76;101025.17;1711299;82;21539;-85
2021/08/31 09:25:52;;;;;;;17.12;10.90;;;;;;;18.39;84.78;101021.59;1698736;81;21391;-85
2021/08/31 09:28:26;;;;;;;12.75;9.38;;;;;;;18.41;84.65;101032.71;1692669;83;21119;-85
2021/08/31 09:31:05;;;;;;;16.80;9.48;;;;;;;18.49;84.28;101045.10;1703578;83;21758;-86
2021/08/31 09:33:39;;;;;;;11.40;8.93;;;;;;;18.61;83.88;101031.30;1687341;83;21032;-85
2021/08/31 09:36:12;;;;;;;13.35;9.05;;;;;;;18.62;83.29;101031.75;1691531;82;20988;-85
2021/08/31 09:38:55;;;;;;;13.50;9.20;;;;;;;18.68;83.24;101037.50;1687509;83;21519;-86
2021/08/31 09:41:36;;;;;;;12.87;9.33;;;;;;;18.72;82.89;101041.05;1695840;82;21042;-86
2021/08/31 09:44:11;;;;;;;12.82;8.43;;;;;;;18.94;83.25;101045.43;1667284;82;22698;-85
2021/08/31 09:46:59;;;;;;;13.78;8.93;;;;;;;19.06;82.24;101043.14;1713571;82;20978;-85
2021/08/31 09:49:31;;;;;;;11.03;9.13;;;;;;;19.18;81.79;101031.08;1689701;83;21449;-85
2021/08/31 09:52:11;;;;;;;10.60;8.68;;;;;;;19.36;81.96;101043.85;1689325;82;21006;-85
2021/08/31 09:54:47;;;;;;;12.13;9.65;;;;;;;19.43;81.31;101048.27;1711679;81;21016;-87
2021/08/31 09:57:39;;;;;;;11.78;9.23;;;;;;;19.30;80.45;101058.58;1712575;82;21920;-87
2021/08/31 10:00:09;;;;;;;13.90;9.83;;;;;;;19.19;80.82;101035.95;1681506;82;21040;-84
2021/08/31 10:02:40;;;;;;;13.30;9.03;;;;;;;19.27;81.10;101025.23;1671536;85;21491;-84
2021/08/31 10:05:07;;;;;;;11.28;8.60;;;;;;;19.26;81.00;101044.37;1675060;85;22185;-82
2021/08/31 10:07:34;;;;;;;10.00;8.33;;;;;;;19.22;80.92;101047.95;1674879;85;21504;-82
2021/08/31 10:10:02;;;;;;;14.43;10.38;;;;;;;19.32;81.38;101038.98;1667340;85;21063;-81
2021/08/31 10:12:30;;;;;;;11.73;9.20;;;;;;;19.40;81.18;101042.47;1658132;85;21044;-82
2021/08/31 10:14:58;;;;;;;17.45;10.48;;;;;;;19.55;81.28;101043.27;1670290;85;21051;-81
2021/08/31 10:17:29;;;;;;;12.93;9.78;;;;;;;19.58;80.57;101053.95;1679356;85;21445;-82
2021/08/31 10:19:58;;;;;;;13.28;8.70;;;;;;;19.60;80.65;101045.02;1712088;83;21445;-82
2021/08/31 10:22:25;;;;;;;12.10;8.95;;;;;;;19.59;80.27;101043.22;1698350;82;22573;-82
2021/08/31 10:24:52;;;;;;;13.13;8.43;;;;;;;19.54;80.08;101049.08;1697298;84;21003;-81
2021/08/31 10:27:36;;;;;;;13.28;9.55;;;;;;;19.39;79.83;101047.85;1699016;83;21494;-81
2021/08/31 10:30:20;;;;;;;14.75;9.80;;;;;;;19.29;79.83;101064.34;1692329;83;21003;-82
2021/08/31 10:32:50;;;;;;;15.68;9.40;;;;;;;19.27;79.74;101062.14;1692290;83;21637;-82
2021/08/31 10:35:43;;;;;;;12.40;9.35;;;;;;;19.39;79.13;101086.55;1688987;83;21825;-82
2021/08/31 10:38:11;;;;;;;13.30;10.10;;;;;;;19.35;78.44;101081.68;1717574;82;20983;-82
2021/08/31 10:40:46;;;;;;;14.98;9.38;;;;;;;19.12;78.44;101093.79;1717651;81;21564;-82
2021/08/31 10:43:15;;;;;;;13.08;9.55;;;;;;;18.96;78.80;101071.64;1688519;85;21053;-82
2021/08/31 10:45:44;;;;;;;14.90;9.10;;;;;;;19.04;79.09;101072.94;1692103;83;21487;-82
2021/08/31 10:48:28;;;;;;;12.10;8.88;;;;;;;19.23;79.73;101067.94;1699305;83;21742;-82
2021/08/31 10:51:06;;;;;;;10.15;8.63;;;;;;;19.49;79.06;101057.55;1682311;84;21508;-82
2021/08/31 10:53:41;;;;;;;13.13;9.48;;;;;;;19.71;78.59;101064.09;1728520;81;21069;-82
2021/08/31 10:56:27;;;;;;;12.35;8.85;;;;;;;19.98;78.31;101075.02;1686528;83;21043;-82
2021/08/31 10:58:57;;;;;;;15.03;8.50;;;;;;;20.14;77.57;101063.72;1687898;85;21519;-82
2021/08/31 11:01:28;;;;;;;10.43;8.55;;;;;;;20.31;77.55;101088.53;1687790;84;21887;-82
2021/08/31 11:03:55;;;;;;;14.75;8.45;;;;;;;20.39;76.12;101076.41;1687627;85;21007;-82
2021/08/31 11:06:33;;;;;;;10.85;8.30;;;;;;;20.15;75.01;101053.48;1688208;84;21023;-82
2021/08/31 11:09:10;;;;;;;9.53;7.75;;;;;;;20.05;75.09;101104.80;1693436;83;21037;-82
2021/08/31 11:11:44;;;;;;;11.80;8.28;;;;;;;19.96;75.70;101113.77;1638859;85;21015;-82
2021/08/31 11:14:11;;;;;;;14.95;8.23;;;;;;;19.70;75.09;101087.67;1635794;86;21742;-82
2021/08/31 11:16:38;;;;;;;10.40;8.13;;;;;;;19.70;75.09;101087.67;1660740;86;21011;-82